sensor_id;sensor_type;location;lat;lon;timestamp;pressure;altitude;pressure_sealevel;temperature;humidity
52291;BME280;39663;45.432;28.050;2023-06-10T00:00:23;100704.06;;;22.44;40.63
52291;BME280;39663;45.432;28.050;2023-06-10T00:00:54;100704.54;;;22.60;40.25
52291;BME280;39663;45.432;28.050;2023-06-10T00:01:26;100703.74;;;22.38;40.68
52291;BME280;39663;45.432;28.050;2023-06-10T00:01:58;100704.16;;;22.66;40.48
52291;BME280;39663;45.432;28.050;2023-06-10T00:02:29;100702.95;;;22.74;40.26
52291;BME280;39663;45.432;28.050;2023-06-10T00:03:01;100700.39;;;23.07;40.37
52291;BME280;39663;45.432;28.050;2023-06-10T00:03:32;100700.29;;;23.13;40.30
52291;BME280;39663;45.432;28.050;2023-06-10T00:04:04;100700.65;;;22.69;40.28
52291;BME280;39663;45.432;28.050;2023-06-10T00:04:36;100698.49;;;22.72;40.27
52291;BME280;39663;45.432;28.050;2023-06-10T00:05:08;100697.59;;;22.94;40.25
52291;BME280;39663;45.432;28.050;2023-06-10T00:05:39;100696.02;;;22.68;40.38
52291;BME280;39663;45.432;28.050;2023-06-10T00:06:11;100697.45;;;22.64;40.47
52291;BME280;39663;45.432;28.050;2023-06-10T00:06:43;100696.31;;;22.94;40.42
52291;BME280;39663;45.432;28.050;2023-06-10T00:07:15;100694.62;;;22.73;40.32
52291;BME280;39663;45.432;28.050;2023-06-10T00:07:47;100693.15;;;22.69;40.42
52291;BME280;39663;45.432;28.050;2023-06-10T00:08:18;100693.28;;;22.67;40.40
52291;BME280;39663;45.432;28.050;2023-06-10T00:08:50;100692.57;;;22.65;40.35
52291;BME280;39663;45.432;28.050;2023-06-10T00:09:21;100691.56;;;22.68;40.45
52291;BME280;39663;45.432;28.050;2023-06-10T00:09:53;100692.16;;;22.79;40.46
52291;BME280;39663;45.432;28.050;2023-06-10T00:10:24;100691.38;;;22.74;40.53
52291;BME280;39663;45.432;28.050;2023-06-10T00:10:56;100690.47;;;22.75;40.42
52291;BME280;39663;45.432;28.050;2023-06-10T00:11:28;100690.63;;;22.72;40.46
52291;BME280;39663;45.432;28.050;2023-06-10T00:11:59;100689.57;;;22.66;40.59
52291;BME280;39663;45.432;28.050;2023-06-10T00:12:31;100689.69;;;22.65;40.62
52291;BME280;39663;45.432;28.050;2023-06-10T00:13:03;100690.15;;;22.62;40.64
52291;BME280;39663;45.432;28.050;2023-06-10T00:13:34;100689.00;;;22.54;40.67
52291;BME280;39663;45.432;28.050;2023-06-10T00:14:06;100689.12;;;22.56;40.79
52291;BME280;39663;45.432;28.050;2023-06-10T00:14:39;100689.12;;;21.81;40.75
52291;BME280;39663;45.432;28.050;2023-06-10T00:15:11;100691.37;;;22.01;40.82
52291;BME280;39663;45.432;28.050;2023-06-10T00:15:42;100690.94;;;22.21;40.95
52291;BME280;39663;45.432;28.050;2023-06-10T00:16:14;100691.83;;;22.21;41.00
52291;BME280;39663;45.432;28.050;2023-06-10T00:16:46;100692.56;;;22.21;40.92
52291;BME280;39663;45.432;28.050;2023-06-10T00:17:17;100693.06;;;22.31;41.08
52291;BME280;39663;45.432;28.050;2023-06-10T00:17:50;100694.40;;;21.92;41.00
52291;BME280;39663;45.432;28.050;2023-06-10T00:18:22;100696.40;;;21.59;41.12
52291;BME280;39663;45.432;28.050;2023-06-10T00:18:54;100694.43;;;21.11;41.22
52291;BME280;39663;45.432;28.050;2023-06-10T00:19:26;100695.71;;;21.66;41.06
52291;BME280;39663;45.432;28.050;2023-06-10T00:19:58;100695.18;;;21.90;41.01
52291;BME280;39663;45.432;28.050;2023-06-10T00:20:30;100697.27;;;22.15;41.15
52291;BME280;39663;45.432;28.050;2023-06-10T00:21:02;100696.46;;;22.05;41.12
52291;BME280;39663;45.432;28.050;2023-06-10T00:21:34;100695.40;;;22.09;40.99
52291;BME280;39663;45.432;28.050;2023-06-10T00:22:06;100694.48;;;22.28;40.98
52291;BME280;39663;45.432;28.050;2023-06-10T00:22:38;100695.47;;;22.34;41.07
52291;BME280;39663;45.432;28.050;2023-06-10T00:23:09;100694.94;;;22.35;41.11
52291;BME280;39663;45.432;28.050;2023-06-10T00:23:41;100695.49;;;22.11;41.12
52291;BME280;39663;45.432;28.050;2023-06-10T00:24:12;100694.01;;;22.14;41.02
52291;BME280;39663;45.432;28.050;2023-06-10T00:24:44;100695.10;;;22.31;41.17
52291;BME280;39663;45.432;28.050;2023-06-10T00:25:16;100695.45;;;22.26;41.09
52291;BME280;39663;45.432;28.050;2023-06-10T00:25:47;100694.33;;;22.11;41.20
52291;BME280;39663;45.432;28.050;2023-06-10T00:26:19;100693.72;;;22.26;41.27
52291;BME280;39663;45.432;28.050;2023-06-10T00:26:51;100691.17;;;22.30;41.16
52291;BME280;39663;45.432;28.050;2023-06-10T00:27:24;100690.44;;;22.01;41.27
52291;BME280;39663;45.432;28.050;2023-06-10T00:27:56;100691.01;;;21.81;41.49
52291;BME280;39663;45.432;28.050;2023-06-10T00:28:27;100695.32;;;22.05;41.82
52291;BME280;39663;45.432;28.050;2023-06-10T00:28:59;100693.24;;;21.87;41.81
52291;BME280;39663;45.432;28.050;2023-06-10T00:29:30;100693.52;;;22.08;41.72
52291;BME280;39663;45.432;28.050;2023-06-10T00:30:03;100695.58;;;22.08;41.70
52291;BME280;39663;45.432;28.050;2023-06-10T00:30:34;100694.10;;;21.93;41.44
52291;BME280;39663;45.432;28.050;2023-06-10T00:31:06;100692.62;;;22.12;41.46
52291;BME280;39663;45.432;28.050;2023-06-10T00:31:38;100693.72;;;21.95;41.50
52291;BME280;39663;45.432;28.050;2023-06-10T00:32:09;100694.60;;;22.09;41.65
52291;BME280;39663;45.432;28.050;2023-06-10T00:32:41;100692.63;;;22.07;41.69
52291;BME280;39663;45.432;28.050;2023-06-10T00:33:12;100691.30;;;21.92;41.76
52291;BME280;39663;45.432;28.050;2023-06-10T00:33:44;100694.96;;;21.89;41.79
52291;BME280;39663;45.432;28.050;2023-06-10T00:34:16;100693.10;;;21.70;41.83
52291;BME280;39663;45.432;28.050;2023-06-10T00:34:47;100695.21;;;21.73;42.29
52291;BME280;39663;45.432;28.050;2023-06-10T00:35:19;100694.65;;;21.80;41.85
52291;BME280;39663;45.432;28.050;2023-06-10T00:35:50;100693.96;;;21.80;41.95
52291;BME280;39663;45.432;28.050;2023-06-10T00:36:22;100696.43;;;21.77;42.14
52291;BME280;39663;45.432;28.050;2023-06-10T00:36:54;100695.35;;;21.55;42.22
52291;BME280;39663;45.432;28.050;2023-06-10T00:37:26;100695.82;;;21.85;41.99
52291;BME280;39663;45.432;28.050;2023-06-10T00:37:58;100696.81;;;21.75;41.90
52291;BME280;39663;45.432;28.050;2023-06-10T00:38:29;100695.28;;;21.68;41.95
52291;BME280;39663;45.432;28.050;2023-06-10T00:39:01;100695.87;;;21.97;41.86
52291;BME280;39663;45.432;28.050;2023-06-10T00:39:33;100695.40;;;22.16;41.62
52291;BME280;39663;45.432;28.050;2023-06-10T00:40:05;100693.62;;;21.95;41.31
52291;BME280;39663;45.432;28.050;2023-06-10T00:40:39;100691.21;;;22.12;41.24
52291;BME280;39663;45.432;28.050;2023-06-10T00:41:11;100691.50;;;22.22;41.25
52291;BME280;39663;45.432;28.050;2023-06-10T00:41:43;100691.37;;;22.23;41.39
52291;BME280;39663;45.432;28.050;2023-06-10T00:42:15;100690.86;;;22.18;41.32
52291;BME280;39663;45.432;28.050;2023-06-10T00:42:46;100695.40;;;22.13;41.13
52291;BME280;39663;45.432;28.050;2023-06-10T00:43:18;100693.80;;;22.16;41.20
52291;BME280;39663;45.432;28.050;2023-06-10T00:43:50;100692.35;;;22.19;40.85
52291;BME280;39663;45.432;28.050;2023-06-10T00:44:21;100694.37;;;21.95;40.86
52291;BME280;39663;45.432;28.050;2023-06-10T00:44:54;100693.63;;;22.06;40.73
52291;BME280;39663;45.432;28.050;2023-06-10T00:45:26;100692.94;;;22.07;41.11
52291;BME280;39663;45.432;28.050;2023-06-10T00:45:58;100691.13;;;22.30;40.83
52291;BME280;39663;45.432;28.050;2023-06-10T00:46:30;100691.39;;;22.26;41.01
52291;BME280;39663;45.432;28.050;2023-06-10T00:47:02;100689.36;;;22.19;40.91
52291;BME280;39663;45.432;28.050;2023-06-10T00:47:34;100688.80;;;22.24;40.82
52291;BME280;39663;45.432;28.050;2023-06-10T00:48:07;100689.68;;;22.41;40.61
52291;BME280;39663;45.432;28.050;2023-06-10T00:48:39;100689.04;;;22.41;40.63
52291;BME280;39663;45.432;28.050;2023-06-10T00:49:11;100688.85;;;22.40;40.77
52291;BME280;39663;45.432;28.050;2023-06-10T00:49:43;100690.77;;;22.07;41.11
52291;BME280;39663;45.432;28.050;2023-06-10T00:50:15;100691.14;;;22.09;40.97
52291;BME280;39663;45.432;28.050;2023-06-10T00:50:47;100691.44;;;22.30;40.78
52291;BME280;39663;45.432;28.050;2023-06-10T00:51:21;100692.54;;;22.36;40.95
52291;BME280;39663;45.432;28.050;2023-06-10T00:51:53;100691.57;;;22.13;40.86
52291;BME280;39663;45.432;28.050;2023-06-10T00:52:28;100692.49;;;22.21;40.97
52291;BME280;39663;45.432;28.050;2023-06-10T00:53:00;100692.70;;;22.05;40.92
52291;BME280;39663;45.432;28.050;2023-06-10T00:53:33;100692.44;;;22.05;41.12
52291;BME280;39663;45.432;28.050;2023-06-10T00:54:05;100690.55;;;22.00;41.17
52291;BME280;39663;45.432;28.050;2023-06-10T00:54:38;100691.75;;;22.28;40.95
52291;BME280;39663;45.432;28.050;2023-06-10T00:55:10;100692.22;;;22.21;41.05
52291;BME280;39663;45.432;28.050;2023-06-10T00:55:42;100692.38;;;22.04;40.90
52291;BME280;39663;45.432;28.050;2023-06-10T00:56:14;100693.49;;;22.18;40.99
52291;BME280;39663;45.432;28.050;2023-06-10T00:56:45;100693.07;;;22.25;41.10
52291;BME280;39663;45.432;28.050;2023-06-10T00:57:17;100695.52;;;22.09;41.24
52291;BME280;39663;45.432;28.050;2023-06-10T00:57:49;100694.31;;;21.94;41.41
52291;BME280;39663;45.432;28.050;2023-06-10T00:58:21;100696.12;;;22.05;41.56
52291;BME280;39663;45.432;28.050;2023-06-10T00:58:53;100696.65;;;21.92;41.70
52291;BME280;39663;45.432;28.050;2023-06-10T00:59:24;100697.45;;;21.89;41.68
52291;BME280;39663;45.432;28.050;2023-06-10T00:59:55;100697.82;;;21.84;41.87
52291;BME280;39663;45.432;28.050;2023-06-10T01:00:28;100699.27;;;21.62;41.89
52291;BME280;39663;45.432;28.050;2023-06-10T01:01:01;100699.60;;;21.61;41.99
52291;BME280;39663;45.432;28.050;2023-06-10T01:01:33;100700.18;;;21.69;41.84
52291;BME280;39663;45.432;28.050;2023-06-10T01:02:05;100700.03;;;21.91;41.76
52291;BME280;39663;45.432;28.050;2023-06-10T01:02:36;100700.58;;;21.89;41.88
52291;BME280;39663;45.432;28.050;2023-06-10T01:03:08;100701.60;;;21.92;41.94
52291;BME280;39663;45.432;28.050;2023-06-10T01:03:41;100702.81;;;21.78;42.13
52291;BME280;39663;45.432;28.050;2023-06-10T01:04:12;100704.51;;;21.72;42.14
52291;BME280;39663;45.432;28.050;2023-06-10T01:04:44;100703.16;;;21.93;42.16
52291;BME280;39663;45.432;28.050;2023-06-10T01:05:16;100704.82;;;21.73;42.13
52291;BME280;39663;45.432;28.050;2023-06-10T01:05:53;100704.69;;;21.87;42.65
52291;BME280;39663;45.432;28.050;2023-06-10T01:06:34;100704.79;;;21.45;42.78
52291;BME280;39663;45.432;28.050;2023-06-10T01:07:13;100705.29;;;21.95;42.90
52291;BME280;39663;45.432;28.050;2023-06-10T01:07:58;100707.77;;;22.01;42.62
52291;BME280;39663;45.432;28.050;2023-06-10T01:08:37;100706.67;;;21.84;42.86
52291;BME280;39663;45.432;28.050;2023-06-10T01:09:18;100705.72;;;21.92;42.91
52291;BME280;39663;45.432;28.050;2023-06-10T01:09:59;100706.87;;;22.16;42.90
52291;BME280;39663;45.432;28.050;2023-06-10T01:10:35;100706.75;;;22.05;43.09
52291;BME280;39663;45.432;28.050;2023-06-10T01:11:13;100702.26;;;21.88;42.65
52291;BME280;39663;45.432;28.050;2023-06-10T01:11:53;100699.95;;;21.73;42.32
52291;BME280;39663;45.432;28.050;2023-06-10T01:12:33;100704.23;;;22.12;42.87
52291;BME280;39663;45.432;28.050;2023-06-10T01:13:09;100703.73;;;21.88;42.82
52291;BME280;39663;45.432;28.050;2023-06-10T01:13:42;100704.70;;;22.05;42.59
52291;BME280;39663;45.432;28.050;2023-06-10T01:14:15;100704.06;;;22.18;42.83
52291;BME280;39663;45.432;28.050;2023-06-10T01:14:48;100704.07;;;21.96;42.44
52291;BME280;39663;45.432;28.050;2023-06-10T01:15:20;100703.89;;;22.02;42.44
52291;BME280;39663;45.432;28.050;2023-06-10T01:15:52;100702.72;;;22.26;42.30
52291;BME280;39663;45.432;28.050;2023-06-10T01:16:24;100702.22;;;22.23;42.26
52291;BME280;39663;45.432;28.050;2023-06-10T01:16:56;100700.98;;;22.36;42.25
52291;BME280;39663;45.432;28.050;2023-06-10T01:17:28;100702.67;;;22.26;42.39
52291;BME280;39663;45.432;28.050;2023-06-10T01:18:02;100703.68;;;22.31;42.41
52291;BME280;39663;45.432;28.050;2023-06-10T01:18:33;100702.23;;;22.34;42.41
52291;BME280;39663;45.432;28.050;2023-06-10T01:19:05;100703.38;;;22.53;42.29
52291;BME280;39663;45.432;28.050;2023-06-10T01:19:36;100702.24;;;22.18;42.26
52291;BME280;39663;45.432;28.050;2023-06-10T01:20:09;100701.97;;;22.33;42.41
52291;BME280;39663;45.432;28.050;2023-06-10T01:20:42;100701.73;;;22.26;42.44
52291;BME280;39663;45.432;28.050;2023-06-10T01:21:19;100701.72;;;22.21;42.65
52291;BME280;39663;45.432;28.050;2023-06-10T01:21:51;100699.73;;;22.12;42.70
52291;BME280;39663;45.432;28.050;2023-06-10T01:22:24;100700.66;;;22.29;42.69
52291;BME280;39663;45.432;28.050;2023-06-10T01:23:01;100703.14;;;22.04;42.86
52291;BME280;39663;45.432;28.050;2023-06-10T01:23:33;100701.11;;;22.19;42.76
52291;BME280;39663;45.432;28.050;2023-06-10T01:24:05;100702.08;;;21.92;42.89
52291;BME280;39663;45.432;28.050;2023-06-10T01:24:37;100702.05;;;22.25;42.87
52291;BME280;39663;45.432;28.050;2023-06-10T01:25:08;100706.01;;;21.97;42.91
52291;BME280;39663;45.432;28.050;2023-06-10T01:25:41;100706.49;;;21.99;42.79
52291;BME280;39663;45.432;28.050;2023-06-10T01:26:16;100702.74;;;22.19;42.58
52291;BME280;39663;45.432;28.050;2023-06-10T01:26:50;100701.82;;;22.31;42.63
52291;BME280;39663;45.432;28.050;2023-06-10T01:27:23;100703.86;;;22.07;42.81
52291;BME280;39663;45.432;28.050;2023-06-10T01:28:04;100705.68;;;22.20;42.75
52291;BME280;39663;45.432;28.050;2023-06-10T01:28:40;100708.61;;;21.91;42.80
52291;BME280;39663;45.432;28.050;2023-06-10T01:29:18;100707.76;;;21.98;42.77
52291;BME280;39663;45.432;28.050;2023-06-10T01:29:54;100708.72;;;22.21;42.63
52291;BME280;39663;45.432;28.050;2023-06-10T01:30:36;100706.43;;;22.25;42.46
52291;BME280;39663;45.432;28.050;2023-06-10T01:31:16;100707.51;;;22.04;42.42
52291;BME280;39663;45.432;28.050;2023-06-10T01:31:53;100702.99;;;22.04;42.32
52291;BME280;39663;45.432;28.050;2023-06-10T01:32:33;100703.31;;;22.09;42.15
52291;BME280;39663;45.432;28.050;2023-06-10T01:33:07;100705.72;;;22.02;42.11
52291;BME280;39663;45.432;28.050;2023-06-10T01:33:43;100703.91;;;22.00;42.03
52291;BME280;39663;45.432;28.050;2023-06-10T01:34:17;100705.24;;;21.94;42.42
52291;BME280;39663;45.432;28.050;2023-06-10T01:34:49;100705.12;;;22.05;42.44
52291;BME280;39663;45.432;28.050;2023-06-10T01:35:22;100703.35;;;21.95;42.49
52291;BME280;39663;45.432;28.050;2023-06-10T01:35:57;100703.46;;;21.86;42.24
52291;BME280;39663;45.432;28.050;2023-06-10T01:36:29;100704.10;;;21.81;42.23
52291;BME280;39663;45.432;28.050;2023-06-10T01:37:03;100701.78;;;21.83;42.42
52291;BME280;39663;45.432;28.050;2023-06-10T01:37:35;100702.26;;;21.94;42.60
52291;BME280;39663;45.432;28.050;2023-06-10T01:38:09;100702.20;;;22.08;42.10
52291;BME280;39663;45.432;28.050;2023-06-10T01:38:44;100703.72;;;21.88;42.20
52291;BME280;39663;45.432;28.050;2023-06-10T01:39:17;100701.55;;;21.86;42.19
52291;BME280;39663;45.432;28.050;2023-06-10T01:39:49;100703.60;;;21.94;42.14
52291;BME280;39663;45.432;28.050;2023-06-10T01:40:23;100701.79;;;22.11;42.06
52291;BME280;39663;45.432;28.050;2023-06-10T01:40:55;100699.93;;;21.81;42.35
52291;BME280;39663;45.432;28.050;2023-06-10T01:41:29;100700.04;;;21.88;42.19
52291;BME280;39663;45.432;28.050;2023-06-10T01:42:02;100700.71;;;21.85;42.16
52291;BME280;39663;45.432;28.050;2023-06-10T01:42:33;100700.61;;;21.95;42.03
52291;BME280;39663;45.432;28.050;2023-06-10T01:43:05;100700.25;;;21.96;41.93
52291;BME280;39663;45.432;28.050;2023-06-10T01:43:38;100702.22;;;21.87;42.13
52291;BME280;39663;45.432;28.050;2023-06-10T01:44:10;100699.65;;;22.03;41.98
52291;BME280;39663;45.432;28.050;2023-06-10T01:44:42;100701.12;;;21.79;42.34
52291;BME280;39663;45.432;28.050;2023-06-10T01:45:13;100699.86;;;21.84;42.26
52291;BME280;39663;45.432;28.050;2023-06-10T01:45:45;100701.24;;;22.06;42.08
52291;BME280;39663;45.432;28.050;2023-06-10T01:46:17;100701.77;;;21.73;41.98
52291;BME280;39663;45.432;28.050;2023-06-10T01:46:48;100699.22;;;21.88;42.02
52291;BME280;39663;45.432;28.050;2023-06-10T01:47:20;100699.64;;;21.88;42.02
52291;BME280;39663;45.432;28.050;2023-06-10T01:47:52;100698.83;;;21.94;42.15
52291;BME280;39663;45.432;28.050;2023-06-10T01:48:23;100699.24;;;22.12;42.01
52291;BME280;39663;45.432;28.050;2023-06-10T01:48:55;100696.76;;;22.08;41.98
52291;BME280;39663;45.432;28.050;2023-06-10T01:49:27;100698.77;;;22.04;42.15
52291;BME280;39663;45.432;28.050;2023-06-10T01:49:58;100697.83;;;22.09;41.99
52291;BME280;39663;45.432;28.050;2023-06-10T01:50:30;100696.85;;;21.90;41.79
52291;BME280;39663;45.432;28.050;2023-06-10T01:51:02;100697.74;;;21.87;41.88
52291;BME280;39663;45.432;28.050;2023-06-10T01:51:34;100697.68;;;22.02;41.95
52291;BME280;39663;45.432;28.050;2023-06-10T01:52:06;100696.05;;;21.85;42.06
52291;BME280;39663;45.432;28.050;2023-06-10T01:52:38;100696.40;;;22.00;42.11
52291;BME280;39663;45.432;28.050;2023-06-10T01:53:10;100694.91;;;21.91;41.84
52291;BME280;39663;45.432;28.050;2023-06-10T01:53:42;100694.67;;;21.94;41.78
52291;BME280;39663;45.432;28.050;2023-06-10T01:54:13;100695.86;;;22.08;41.76
52291;BME280;39663;45.432;28.050;2023-06-10T01:54:45;100695.06;;;21.97;41.95
52291;BME280;39663;45.432;28.050;2023-06-10T01:55:16;100695.95;;;21.81;41.94
52291;BME280;39663;45.432;28.050;2023-06-10T01:55:48;100698.64;;;21.78;41.90
52291;BME280;39663;45.432;28.050;2023-06-10T01:56:20;100698.62;;;21.82;41.77
52291;BME280;39663;45.432;28.050;2023-06-10T01:56:51;100696.72;;;21.88;41.68
52291;BME280;39663;45.432;28.050;2023-06-10T01:57:23;100697.79;;;22.08;41.89
52291;BME280;39663;45.432;28.050;2023-06-10T01:57:54;100697.30;;;21.72;41.84
52291;BME280;39663;45.432;28.050;2023-06-10T01:58:26;100694.86;;;22.02;41.41
52291;BME280;39663;45.432;28.050;2023-06-10T01:58:58;100696.08;;;22.18;41.45
52291;BME280;39663;45.432;28.050;2023-06-10T01:59:29;100695.61;;;22.23;41.33
52291;BME280;39663;45.432;28.050;2023-06-10T02:00:01;100697.14;;;22.01;41.27
52291;BME280;39663;45.432;28.050;2023-06-10T02:00:33;100697.25;;;21.84;41.53
52291;BME280;39663;45.432;28.050;2023-06-10T02:01:04;100695.98;;;21.72;41.88
52291;BME280;39663;45.432;28.050;2023-06-10T02:01:36;100698.46;;;21.75;42.01
52291;BME280;39663;45.432;28.050;2023-06-10T02:02:07;100699.84;;;22.05;41.63
52291;BME280;39663;45.432;28.050;2023-06-10T02:02:38;100701.03;;;22.01;41.44
52291;BME280;39663;45.432;28.050;2023-06-10T02:03:10;100700.73;;;22.04;41.30
52291;BME280;39663;45.432;28.050;2023-06-10T02:03:41;100703.75;;;21.80;41.65
52291;BME280;39663;45.432;28.050;2023-06-10T02:04:13;100702.60;;;22.02;41.49
52291;BME280;39663;45.432;28.050;2023-06-10T02:04:45;100703.56;;;21.86;41.85
52291;BME280;39663;45.432;28.050;2023-06-10T02:05:16;100704.50;;;21.74;41.80
52291;BME280;39663;45.432;28.050;2023-06-10T02:05:48;100704.48;;;21.96;41.59
52291;BME280;39663;45.432;28.050;2023-06-10T02:06:20;100703.66;;;21.99;41.56
52291;BME280;39663;45.432;28.050;2023-06-10T02:06:51;100703.92;;;22.01;41.64
52291;BME280;39663;45.432;28.050;2023-06-10T02:07:23;100705.69;;;22.02;41.55
52291;BME280;39663;45.432;28.050;2023-06-10T02:07:56;100705.11;;;21.78;41.59
52291;BME280;39663;45.432;28.050;2023-06-10T02:08:27;100704.11;;;21.96;41.70
52291;BME280;39663;45.432;28.050;2023-06-10T02:08:59;100705.52;;;21.88;42.07
52291;BME280;39663;45.432;28.050;2023-06-10T02:09:31;100703.80;;;21.84;42.05
52291;BME280;39663;45.432;28.050;2023-06-10T02:10:03;100703.43;;;21.86;41.93
52291;BME280;39663;45.432;28.050;2023-06-10T02:10:35;100702.92;;;21.68;42.23
52291;BME280;39663;45.432;28.050;2023-06-10T02:11:07;100701.22;;;21.66;42.37
52291;BME280;39663;45.432;28.050;2023-06-10T02:11:38;100701.07;;;21.70;42.30
52291;BME280;39663;45.432;28.050;2023-06-10T02:12:11;100699.60;;;21.67;42.38
52291;BME280;39663;45.432;28.050;2023-06-10T02:12:42;100699.27;;;21.67;42.31
52291;BME280;39663;45.432;28.050;2023-06-10T02:13:13;100699.61;;;21.65;42.45
52291;BME280;39663;45.432;28.050;2023-06-10T02:13:45;100698.51;;;21.61;42.55
52291;BME280;39663;45.432;28.050;2023-06-10T02:14:19;100698.04;;;21.47;42.67
52291;BME280;39663;45.432;28.050;2023-06-10T02:14:51;100698.00;;;21.38;42.88
52291;BME280;39663;45.432;28.050;2023-06-10T02:15:22;100698.33;;;21.44;42.77
52291;BME280;39663;45.432;28.050;2023-06-10T02:15:54;100699.72;;;21.65;42.75
52291;BME280;39663;45.432;28.050;2023-06-10T02:16:25;100699.67;;;21.44;42.77
52291;BME280;39663;45.432;28.050;2023-06-10T02:16:57;100699.74;;;21.31;42.65
52291;BME280;39663;45.432;28.050;2023-06-10T02:17:29;100700.18;;;21.31;42.72
52291;BME280;39663;45.432;28.050;2023-06-10T02:18:06;100700.24;;;21.36;42.68
52291;BME280;39663;45.432;28.050;2023-06-10T02:18:38;100698.35;;;21.43;42.56
52291;BME280;39663;45.432;28.050;2023-06-10T02:19:10;100697.55;;;21.44;42.50
52291;BME280;39663;45.432;28.050;2023-06-10T02:19:41;100696.48;;;21.41;42.51
52291;BME280;39663;45.432;28.050;2023-06-10T02:20:13;100696.55;;;21.42;42.69
52291;BME280;39663;45.432;28.050;2023-06-10T02:20:45;100696.50;;;21.50;42.70
52291;BME280;39663;45.432;28.050;2023-06-10T02:21:16;100697.16;;;21.02;42.77
52291;BME280;39663;45.432;28.050;2023-06-10T02:21:48;100694.66;;;21.43;42.77
52291;BME280;39663;45.432;28.050;2023-06-10T02:22:21;100693.96;;;21.27;42.90
52291;BME280;39663;45.432;28.050;2023-06-10T02:22:52;100694.27;;;21.40;42.91
52291;BME280;39663;45.432;28.050;2023-06-10T02:23:24;100692.79;;;21.43;42.97
52291;BME280;39663;45.432;28.050;2023-06-10T02:24:01;100694.87;;;21.55;43.02
52291;BME280;39663;45.432;28.050;2023-06-10T02:24:32;100695.29;;;21.51;43.13
52291;BME280;39663;45.432;28.050;2023-06-10T02:25:06;100697.41;;;21.19;43.37
52291;BME280;39663;45.432;28.050;2023-06-10T02:25:37;100696.06;;;21.16;43.45
52291;BME280;39663;45.432;28.050;2023-06-10T02:26:09;100695.20;;;21.35;43.38
52291;BME280;39663;45.432;28.050;2023-06-10T02:26:45;100695.97;;;21.19;43.38
52291;BME280;39663;45.432;28.050;2023-06-10T02:27:17;100696.31;;;21.58;43.43
52291;BME280;39663;45.432;28.050;2023-06-10T02:27:49;100697.35;;;21.19;43.53
52291;BME280;39663;45.432;28.050;2023-06-10T02:28:20;100694.29;;;21.21;43.39
52291;BME280;39663;45.432;28.050;2023-06-10T02:28:52;100695.53;;;21.20;43.36
52291;BME280;39663;45.432;28.050;2023-06-10T02:29:23;100696.13;;;21.24;43.28
52291;BME280;39663;45.432;28.050;2023-06-10T02:29:55;100696.00;;;21.22;43.28
52291;BME280;39663;45.432;28.050;2023-06-10T02:30:27;100696.33;;;21.40;43.28
52291;BME280;39663;45.432;28.050;2023-06-10T02:30:59;100696.34;;;21.39;43.32
52291;BME280;39663;45.432;28.050;2023-06-10T02:31:30;100697.99;;;21.00;43.46
52291;BME280;39663;45.432;28.050;2023-06-10T02:32:03;100697.63;;;21.25;43.58
52291;BME280;39663;45.432;28.050;2023-06-10T02:32:34;100698.80;;;21.00;43.65
52291;BME280;39663;45.432;28.050;2023-06-10T02:33:06;100698.73;;;21.10;43.61
52291;BME280;39663;45.432;28.050;2023-06-10T02:33:39;100699.70;;;21.44;43.51
52291;BME280;39663;45.432;28.050;2023-06-10T02:34:11;100699.05;;;21.08;43.44
52291;BME280;39663;45.432;28.050;2023-06-10T02:34:42;100698.64;;;21.25;43.36
52291;BME280;39663;45.432;28.050;2023-06-10T02:35:14;100699.08;;;21.37;43.42
52291;BME280;39663;45.432;28.050;2023-06-10T02:35:46;100698.75;;;21.23;43.58
52291;BME280;39663;45.432;28.050;2023-06-10T02:36:17;100697.38;;;21.17;43.69
52291;BME280;39663;45.432;28.050;2023-06-10T02:36:49;100696.18;;;21.17;43.45
52291;BME280;39663;45.432;28.050;2023-06-10T02:37:20;100695.41;;;21.35;43.37
52291;BME280;39663;45.432;28.050;2023-06-10T02:37:52;100695.11;;;21.40;43.27
52291;BME280;39663;45.432;28.050;2023-06-10T02:38:24;100694.24;;;21.18;43.39
52291;BME280;39663;45.432;28.050;2023-06-10T02:38:55;100694.50;;;20.89;43.78
52291;BME280;39663;45.432;28.050;2023-06-10T02:39:28;100695.31;;;21.06;43.72
52291;BME280;39663;45.432;28.050;2023-06-10T02:39:59;100695.79;;;21.28;43.79
52291;BME280;39663;45.432;28.050;2023-06-10T02:40:31;100697.55;;;20.95;43.91
52291;BME280;39663;45.432;28.050;2023-06-10T02:41:02;100694.92;;;21.21;44.01
52291;BME280;39663;45.432;28.050;2023-06-10T02:41:39;100696.55;;;20.86;43.74
52291;BME280;39663;45.432;28.050;2023-06-10T02:42:10;100696.18;;;21.40;43.54
52291;BME280;39663;45.432;28.050;2023-06-10T02:42:42;100696.56;;;21.05;43.55
52291;BME280;39663;45.432;28.050;2023-06-10T02:43:14;100696.25;;;21.46;43.51
52291;BME280;39663;45.432;28.050;2023-06-10T02:43:45;100695.83;;;21.52;43.45
52291;BME280;39663;45.432;28.050;2023-06-10T02:44:18;100696.46;;;21.22;43.58
52291;BME280;39663;45.432;28.050;2023-06-10T02:44:50;100697.29;;;21.25;43.39
52291;BME280;39663;45.432;28.050;2023-06-10T02:45:21;100695.57;;;21.01;43.45
52291;BME280;39663;45.432;28.050;2023-06-10T02:45:53;100697.52;;;21.29;43.45
52291;BME280;39663;45.432;28.050;2023-06-10T02:46:24;100695.48;;;21.51;43.36
52291;BME280;39663;45.432;28.050;2023-06-10T02:46:56;100695.57;;;21.59;43.11
52291;BME280;39663;45.432;28.050;2023-06-10T02:47:28;100695.74;;;21.28;43.14
52291;BME280;39663;45.432;28.050;2023-06-10T02:47:59;100692.28;;;21.35;42.98